sensor_id;sensor_type;location;lat;lon;timestamp;pressure;altitude;pressure_sealevel;temperature;humidity
16451;BME280;12243;42.708;23.310;2023-08-21T00:00:49;95344.44;;;24.32;61.35
16451;BME280;12243;42.708;23.310;2023-08-21T00:03:16;95348.34;;;24.43;61.37
16451;BME280;12243;42.708;23.310;2023-08-21T00:05:43;95347.75;;;24.41;60.69
16451;BME280;12243;42.708;23.310;2023-08-21T00:08:10;95353.22;;;24.39;61.04
16451;BME280;12243;42.708;23.310;2023-08-21T00:10:37;95356.69;;;24.33;60.39
16451;BME280;12243;42.708;23.310;2023-08-21T00:13:04;95354.25;;;24.18;60.62
16451;BME280;12243;42.708;23.310;2023-08-21T00:15:31;95359.38;;;24.07;61.92
16451;BME280;12243;42.708;23.310;2023-08-21T00:17:59;95351.59;;;24.12;61.71
16451;BME280;12243;42.708;23.310;2023-08-21T00:20:27;95354.47;;;24.23;61.44
16451;BME280;12243;42.708;23.310;2023-08-21T00:22:53;95351.19;;;24.28;61.46
16451;BME280;12243;42.708;23.310;2023-08-21T00:25:21;95337.25;;;24.33;60.76
16451;BME280;12243;42.708;23.310;2023-08-21T00:27:48;95346.28;;;24.32;60.68
16451;BME280;12243;42.708;23.310;2023-08-21T00:30:15;95338.88;;;24.34;60.78
16451;BME280;12243;42.708;23.310;2023-08-21T00:32:42;95350.97;;;24.36;60.82
16451;BME280;12243;42.708;23.310;2023-08-21T00:35:10;95351.59;;;24.38;60.95
16451;BME280;12243;42.708;23.310;2023-08-21T00:37:37;95346.47;;;24.37;60.78
16451;BME280;12243;42.708;23.310;2023-08-21T00:40:05;95348.13;;;24.38;60.91
16451;BME280;12243;42.708;23.310;2023-08-21T00:42:32;95353.06;;;24.41;61.12
16451;BME280;12243;42.708;23.310;2023-08-21T00:44:59;95350.16;;;24.36;61.20
16451;BME280;12243;42.708;23.310;2023-08-21T00:47:27;95357.34;;;24.35;61.16
16451;BME280;12243;42.708;23.310;2023-08-21T00:49:54;95357.31;;;24.29;61.39
16451;BME280;12243;42.708;23.310;2023-08-21T00:52:23;95362.47;;;24.23;61.81
16451;BME280;12243;42.708;23.310;2023-08-21T00:54:50;95359.38;;;24.27;61.92
16451;BME280;12243;42.708;23.310;2023-08-21T00:57:18;95352.81;;;24.29;61.98
16451;BME280;12243;42.708;23.310;2023-08-21T00:59:46;95349.56;;;24.40;61.72
16451;BME280;12243;42.708;23.310;2023-08-21T01:02:14;95356.13;;;24.44;61.45
16451;BME280;12243;42.708;23.310;2023-08-21T01:04:41;95356.09;;;24.51;61.33
16451;BME280;12243;42.708;23.310;2023-08-21T01:07:08;95354.88;;;24.60;61.18
16451;BME280;12243;42.708;23.310;2023-08-21T01:09:43;95358.97;;;24.69;60.96
16451;BME280;12243;42.708;23.310;2023-08-21T01:12:29;95355.50;;;24.69;60.58
16451;BME280;12243;42.708;23.310;2023-08-21T01:15:01;95359.38;;;24.66;60.70
16451;BME280;12243;42.708;23.310;2023-08-21T01:17:29;95352.84;;;24.62;61.08
16451;BME280;12243;42.708;23.310;2023-08-21T01:19:57;95355.91;;;24.59;61.48
16451;BME280;12243;42.708;23.310;2023-08-21T01:22:26;95368.38;;;24.39;62.19
16451;BME280;12243;42.708;23.310;2023-08-21T01:24:54;95372.72;;;24.40;61.99
16451;BME280;12243;42.708;23.310;2023-08-21T01:27:21;95365.94;;;24.44;62.23
16451;BME280;12243;42.708;23.310;2023-08-21T01:29:49;95371.03;;;24.25;62.37
16451;BME280;12243;42.708;23.310;2023-08-21T01:32:21;95363.03;;;24.12;63.02
16451;BME280;12243;42.708;23.310;2023-08-21T01:34:51;95374.09;;;24.09;63.49
16451;BME280;12243;42.708;23.310;2023-08-21T01:37:21;95366.34;;;24.14;63.31
16451;BME280;12243;42.708;23.310;2023-08-21T01:39:49;95367.97;;;24.29;62.93
16451;BME280;12243;42.708;23.310;2023-08-21T01:42:17;95370.03;;;24.40;62.57
16451;BME280;12243;42.708;23.310;2023-08-21T01:44:44;95372.50;;;24.35;62.88
16451;BME280;12243;42.708;23.310;2023-08-21T01:47:11;95369.19;;;24.33;62.80
16451;BME280;12243;42.708;23.310;2023-08-21T01:49:38;95368.59;;;24.31;62.95
16451;BME280;12243;42.708;23.310;2023-08-21T01:52:05;95368.78;;;24.22;63.13
16451;BME280;12243;42.708;23.310;2023-08-21T01:54:32;95363.03;;;24.12;63.68
16451;BME280;12243;42.708;23.310;2023-08-21T01:56:59;95357.53;;;24.00;64.01
16451;BME280;12243;42.708;23.310;2023-08-21T01:59:27;95362.81;;;23.94;64.38
16451;BME280;12243;42.708;23.310;2023-08-21T02:01:54;95367.34;;;23.93;64.28
16451;BME280;12243;42.708;23.310;2023-08-21T02:04:21;95363.66;;;24.08;63.92
16451;BME280;12243;42.708;23.310;2023-08-21T02:06:48;95361.00;;;24.14;63.68
16451;BME280;12243;42.708;23.310;2023-08-21T02:09:14;95364.09;;;24.18;63.56
16451;BME280;12243;42.708;23.310;2023-08-21T02:11:41;95362.88;;;24.20;63.66
16451;BME280;12243;42.708;23.310;2023-08-21T02:14:08;95370.84;;;24.07;63.65
16451;BME280;12243;42.708;23.310;2023-08-21T02:16:37;95368.97;;;24.01;64.05
16451;BME280;12243;42.708;23.310;2023-08-21T02:19:03;95374.13;;;24.03;63.80
16451;BME280;12243;42.708;23.310;2023-08-21T02:21:31;95367.53;;;23.85;64.34
16451;BME280;12243;42.708;23.310;2023-08-21T02:23:59;95362.19;;;23.79;64.93
16451;BME280;12243;42.708;23.310;2023-08-21T02:26:25;95375.28;;;23.80;64.85
16451;BME280;12243;42.708;23.310;2023-08-21T02:28:52;95363.41;;;23.69;65.38
16451;BME280;12243;42.708;23.310;2023-08-21T02:31:19;95359.94;;;23.75;64.90
16451;BME280;12243;42.708;23.310;2023-08-21T02:33:47;95367.09;;;23.68;64.97
16451;BME280;12243;42.708;23.310;2023-08-21T02:36:15;95359.44;;;23.52;65.40
16451;BME280;12243;42.708;23.310;2023-08-21T02:38:42;95362.66;;;23.41;65.67
16451;BME280;12243;42.708;23.310;2023-08-21T02:41:09;95364.53;;;23.47;65.60
16451;BME280;12243;42.708;23.310;2023-08-21T02:43:35;95363.69;;;23.46;65.75
16451;BME280;12243;42.708;23.310;2023-08-21T02:46:02;95363.94;;;23.58;65.49
16451;BME280;12243;42.708;23.310;2023-08-21T02:48:31;95362.09;;;23.52;65.43
16451;BME280;12243;42.708;23.310;2023-08-21T02:51:01;95361.66;;;23.42;65.99
16451;BME280;12243;42.708;23.310;2023-08-21T02:53:29;95362.25;;;23.37;65.97
16451;BME280;12243;42.708;23.310;2023-08-21T02:55:56;95364.56;;;23.53;65.29
16451;BME280;12243;42.708;23.310;2023-08-21T02:58:23;95354.94;;;23.52;65.00
16451;BME280;12243;42.708;23.310;2023-08-21T03:00:49;95358.53;;;23.32;65.30
16451;BME280;12243;42.708;23.310;2023-08-21T03:03:19;95365.69;;;23.31;66.49
16451;BME280;12243;42.708;23.310;2023-08-21T03:05:46;95368.34;;;23.31;66.29
16451;BME280;12243;42.708;23.310;2023-08-21T03:08:14;95368.97;;;23.26;66.31
16451;BME280;12243;42.708;23.310;2023-08-21T03:10:42;95375.50;;;23.30;65.99
16451;BME280;12243;42.708;23.310;2023-08-21T03:13:09;95373.00;;;23.16;66.22
16451;BME280;12243;42.708;23.310;2023-08-21T03:15:36;95376.41;;;23.03;67.24
16451;BME280;12243;42.708;23.310;2023-08-21T03:18:03;95379.28;;;23.08;67.15
16451;BME280;12243;42.708;23.310;2023-08-21T03:20:31;95375.41;;;23.11;67.18
16451;BME280;12243;42.708;23.310;2023-08-21T03:22:58;95379.53;;;23.13;66.36
16451;BME280;12243;42.708;23.310;2023-08-21T03:25:27;95385.56;;;23.00;66.97
16451;BME280;12243;42.708;23.310;2023-08-21T03:27:54;95393.31;;;22.95;68.00
16451;BME280;12243;42.708;23.310;2023-08-21T03:30:21;95391.31;;;23.04;67.63
16451;BME280;12243;42.708;23.310;2023-08-21T03:32:48;95386.44;;;23.08;67.16
16451;BME280;12243;42.708;23.310;2023-08-21T03:35:15;95389.47;;;22.98;67.21
16451;BME280;12243;42.708;23.310;2023-08-21T03:37:42;95393.16;;;22.75;67.80
16451;BME280;12243;42.708;23.310;2023-08-21T03:40:12;95383.41;;;22.54;68.74
16451;BME280;12243;42.708;23.310;2023-08-21T03:42:42;95390.16;;;22.29;70.49
16451;BME280;12243;42.708;23.310;2023-08-21T03:45:09;95395.38;;;22.44;70.40
16451;BME280;12243;42.708;23.310;2023-08-21T03:47:36;95391.38;;;22.54;69.50
16451;BME280;12243;42.708;23.310;2023-08-21T03:50:10;95388.44;;;22.71;68.87
16451;BME280;12243;42.708;23.310;2023-08-21T03:52:36;95388.25;;;22.72;69.28
16451;BME280;12243;42.708;23.310;2023-08-21T03:55:04;95385.34;;;22.67;68.81
16451;BME280;12243;42.708;23.310;2023-08-21T03:57:31;95389.00;;;22.59;69.54
16451;BME280;12243;42.708;23.310;2023-08-21T03:59:59;95393.69;;;22.36;69.97
16451;BME280;12243;42.708;23.310;2023-08-21T04:02:26;95388.22;;;22.16;71.73
16451;BME280;12243;42.708;23.310;2023-08-21T04:04:52;95398.94;;;22.29;71.32
16451;BME280;12243;42.708;23.310;2023-08-21T04:07:19;95391.38;;;22.26;71.66
16451;BME280;12243;42.708;23.310;2023-08-21T04:09:46;95394.25;;;22.31;71.29
16451;BME280;12243;42.708;23.310;2023-08-21T04:12:13;95397.69;;;22.25;71.13
16451;BME280;12243;42.708;23.310;2023-08-21T04:14:40;95397.81;;;22.39;71.50
16451;BME280;12243;42.708;23.310;2023-08-21T04:17:08;95407.41;;;22.68;70.33
16451;BME280;12243;42.708;23.310;2023-08-21T04:19:37;95401.09;;;22.97;68.76
16451;BME280;12243;42.708;23.310;2023-08-21T04:22:06;95396.97;;;23.29;67.97
16451;BME280;12243;42.708;23.310;2023-08-21T04:24:33;95403.00;;;23.51;65.92
16451;BME280;12243;42.708;23.310;2023-08-21T04:27:00;95406.16;;;23.68;65.19
16451;BME280;12243;42.708;23.310;2023-08-21T04:29:27;95407.22;;;23.87;63.67
16451;BME280;12243;42.708;23.310;2023-08-21T04:31:53;95405.38;;;23.87;63.66
16451;BME280;12243;42.708;23.310;2023-08-21T04:34:22;95403.34;;;23.83;63.38
16451;BME280;12243;42.708;23.310;2023-08-21T04:36:49;95408.06;;;23.94;63.31
16451;BME280;12243;42.708;23.310;2023-08-21T04:39:18;95409.53;;;24.03;62.16
16451;BME280;12243;42.708;23.310;2023-08-21T04:41:46;95417.09;;;23.99;62.35
16451;BME280;12243;42.708;23.310;2023-08-21T04:44:13;95410.56;;;24.15;63.46
16451;BME280;12243;42.708;23.310;2023-08-21T04:46:41;95413.44;;;24.34;61.01
16451;BME280;12243;42.708;23.310;2023-08-21T04:49:10;95421.63;;;24.25;61.48
16451;BME280;12243;42.708;23.310;2023-08-21T04:51:38;95413.00;;;24.04;62.46
16451;BME280;12243;42.708;23.310;2023-08-21T04:54:05;95425.28;;;24.11;62.14
16451;BME280;12243;42.708;23.310;2023-08-21T04:56:32;95419.59;;;24.28;62.08
16451;BME280;12243;42.708;23.310;2023-08-21T04:58:59;95422.50;;;24.59;61.07
16451;BME280;12243;42.708;23.310;2023-08-21T05:01:28;95428.25;;;24.69;60.64
16451;BME280;12243;42.708;23.310;2023-08-21T05:03:57;95423.72;;;24.63;60.52
16451;BME280;12243;42.708;23.310;2023-08-21T05:06:24;95418.81;;;24.67;60.65
16451;BME280;12243;42.708;23.310;2023-08-21T05:08:52;95433.56;;;24.69;60.93
16451;BME280;12243;42.708;23.310;2023-08-21T05:11:20;95438.88;;;24.83;60.35
16451;BME280;12243;42.708;23.310;2023-08-21T05:13:47;95431.09;;;24.81;60.57
16451;BME280;12243;42.708;23.310;2023-08-21T05:16:17;95428.59;;;24.93;59.51
16451;BME280;12243;42.708;23.310;2023-08-21T05:18:44;95434.78;;;24.74;59.72
16451;BME280;12243;42.708;23.310;2023-08-21T05:21:15;95437.66;;;24.65;60.45
16451;BME280;12243;42.708;23.310;2023-08-21T05:23:42;95444.63;;;24.80;60.26
16451;BME280;12243;42.708;23.310;2023-08-21T05:26:11;95441.31;;;25.04;59.82
16451;BME280;12243;42.708;23.310;2023-08-21T05:28:38;95442.41;;;25.61;58.23
16451;BME280;12243;42.708;23.310;2023-08-21T05:31:05;95445.47;;;26.17;55.98
16451;BME280;12243;42.708;23.310;2023-08-21T05:33:45;95438.22;;;26.55;54.17
16451;BME280;12243;42.708;23.310;2023-08-21T05:36:13;95444.63;;;26.79;52.91
16451;BME280;12243;42.708;23.310;2023-08-21T05:38:40;95432.63;;;26.89;52.19
16451;BME280;12243;42.708;23.310;2023-08-21T05:41:07;95436.56;;;27.04;52.16
16451;BME280;12243;42.708;23.310;2023-08-21T05:43:35;95433.19;;;27.16;51.63
16451;BME280;12243;42.708;23.310;2023-08-21T05:46:05;95427.47;;;27.12;51.91
16451;BME280;12243;42.708;23.310;2023-08-21T05:48:32;95431.13;;;27.18;51.56
16451;BME280;12243;42.708;23.310;2023-08-21T05:50:59;95430.25;;;27.24;51.52
16451;BME280;12243;42.708;23.310;2023-08-21T05:53:26;95430.69;;;27.58;51.67
16451;BME280;12243;42.708;23.310;2023-08-21T05:55:53;95431.94;;;27.92;50.39
16451;BME280;12243;42.708;23.310;2023-08-21T05:58:20;95432.97;;;28.39;48.87
16451;BME280;12243;42.708;23.310;2023-08-21T06:00:49;95431.16;;;28.75;47.51
16451;BME280;12243;42.708;23.310;2023-08-21T06:03:16;95425.31;;;28.90;47.38
16451;BME280;12243;42.708;23.310;2023-08-21T06:05:57;95423.25;;;29.27;46.47
16451;BME280;12243;42.708;23.310;2023-08-21T06:08:24;95431.16;;;29.46;46.09
16451;BME280;12243;42.708;23.310;2023-08-21T06:10:51;95421.72;;;29.43;45.39
16451;BME280;12243;42.708;23.310;2023-08-21T06:13:19;95425.84;;;29.22;46.26
16451;BME280;12243;42.708;23.310;2023-08-21T06:15:50;95433.41;;;29.37;45.85
16451;BME280;12243;42.708;23.310;2023-08-21T06:18:20;95431.84;;;29.53;45.12
16451;BME280;12243;42.708;23.310;2023-08-21T06:20:48;95435.66;;;29.57;45.87
16451;BME280;12243;42.708;23.310;2023-08-21T06:23:19;95437.88;;;29.83;45.31
16451;BME280;12243;42.708;23.310;2023-08-21T06:25:47;95430.13;;;29.99;44.44
16451;BME280;12243;42.708;23.310;2023-08-21T06:28:14;95442.00;;;30.03;44.06
16451;BME280;12243;42.708;23.310;2023-08-21T06:30:42;95433.09;;;30.14;43.93
16451;BME280;12243;42.708;23.310;2023-08-21T06:33:10;95439.16;;;30.21;44.09
16451;BME280;12243;42.708;23.310;2023-08-21T06:35:37;95440.00;;;30.38;43.57
16451;BME280;12243;42.708;23.310;2023-08-21T06:38:05;95439.34;;;30.31;43.16
16451;BME280;12243;42.708;23.310;2023-08-21T06:40:32;95448.66;;;30.41;43.51
16451;BME280;12243;42.708;23.310;2023-08-21T06:42:59;95444.25;;;30.68;42.87
16451;BME280;12243;42.708;23.310;2023-08-21T06:45:31;95445.69;;;30.88;42.32
16451;BME280;12243;42.708;23.310;2023-08-21T06:47:59;95448.31;;;30.82;42.84
16451;BME280;12243;42.708;23.310;2023-08-21T06:50:27;95447.41;;;30.94;42.17
16451;BME280;12243;42.708;23.310;2023-08-21T06:52:54;95447.41;;;30.94;42.01
16451;BME280;12243;42.708;23.310;2023-08-21T06:55:20;95451.97;;;30.93;41.37
16451;BME280;12243;42.708;23.310;2023-08-21T06:57:47;95442.84;;;30.77;42.02
16451;BME280;12243;42.708;23.310;2023-08-21T07:00:14;95448.81;;;30.79;42.10
16451;BME280;12243;42.708;23.310;2023-08-21T07:02:41;95441.13;;;31.05;42.38
16451;BME280;12243;42.708;23.310;2023-08-21T07:05:08;95444.28;;;31.02;41.38
16451;BME280;12243;42.708;23.310;2023-08-21T07:07:36;95442.34;;;31.14;41.03
16451;BME280;12243;42.708;23.310;2023-08-21T07:10:04;95447.09;;;31.07;41.30
16451;BME280;12243;42.708;23.310;2023-08-21T07:12:30;95433.66;;;31.46;40.83
16451;BME280;12243;42.708;23.310;2023-08-21T07:14:57;95438.91;;;31.79;40.92
16451;BME280;12243;42.708;23.310;2023-08-21T07:17:24;95435.97;;;31.81;40.11
16451;BME280;12243;42.708;23.310;2023-08-21T07:19:51;95444.25;;;31.74;39.74
16451;BME280;12243;42.708;23.310;2023-08-21T07:22:19;95437.44;;;31.89;40.12
16451;BME280;12243;42.708;23.310;2023-08-21T07:24:47;95429.13;;;32.17;39.86
16451;BME280;12243;42.708;23.310;2023-08-21T07:27:14;95429.34;;;32.38;38.71
16451;BME280;12243;42.708;23.310;2023-08-21T07:29:41;95428.75;;;32.58;38.14
16451;BME280;12243;42.708;23.310;2023-08-21T07:32:08;95434.28;;;32.46;38.88
16451;BME280;12243;42.708;23.310;2023-08-21T07:34:35;95426.19;;;32.46;38.99
16451;BME280;12243;42.708;23.310;2023-08-21T07:37:03;95425.81;;;32.10;39.19
16451;BME280;12243;42.708;23.310;2023-08-21T07:39:29;95437.28;;;31.78;39.28
16451;BME280;12243;42.708;23.310;2023-08-21T07:41:58;95435.06;;;31.70;39.26
16451;BME280;12243;42.708;23.310;2023-08-21T07:44:24;95434.03;;;31.76;39.43
16451;BME280;12243;42.708;23.310;2023-08-21T07:46:51;95427.25;;;31.91;39.44
16451;BME280;12243;42.708;23.310;2023-08-21T07:49:18;95424.56;;;31.91;39.32
16451;BME280;12243;42.708;23.310;2023-08-21T07:51:45;95418.94;;;31.97;39.68
16451;BME280;12243;42.708;23.310;2023-08-21T07:54:12;95416.94;;;32.10;39.27
16451;BME280;12243;42.708;23.310;2023-08-21T07:56:38;95420.06;;;32.29;37.90
16451;BME280;12243;42.708;23.310;2023-08-21T07:59:07;95424.03;;;32.43;38.20
16451;BME280;12243;42.708;23.310;2023-08-21T08:01:34;95429.03;;;32.34;38.04
16451;BME280;12243;42.708;23.310;2023-08-21T08:04:01;95414.75;;;32.61;36.95
16451;BME280;12243;42.708;23.310;2023-08-21T08:06:28;95416.25;;;32.79;36.88
16451;BME280;12243;42.708;23.310;2023-08-21T08:08:54;95410.25;;;33.04;37.25
16451;BME280;12243;42.708;23.310;2023-08-21T08:11:21;95413.88;;;33.25;36.73
16451;BME280;12243;42.708;23.310;2023-08-21T08:13:48;95410.66;;;33.28;36.83
16451;BME280;12243;42.708;23.310;2023-08-21T08:16:17;95404.31;;;33.54;36.25
16451;BME280;12243;42.708;23.310;2023-08-21T08:18:43;95402.31;;;33.87;35.72
16451;BME280;12243;42.708;23.310;2023-08-21T08:21:10;95396.19;;;34.07;35.32
16451;BME280;12243;42.708;23.310;2023-08-21T08:23:37;95398.88;;;34.02;35.78
16451;BME280;12243;42.708;23.310;2023-08-21T08:26:04;95404.56;;;34.10;35.15
16451;BME280;12243;42.708;23.310;2023-08-21T08:28:31;95397.47;;;33.94;35.05
16451;BME280;12243;42.708;23.310;2023-08-21T08:30:58;95403.47;;;34.01;35.70
16451;BME280;12243;42.708;23.310;2023-08-21T08:33:26;95394.72;;;33.89;35.08
16451;BME280;12243;42.708;23.310;2023-08-21T08:35:53;95393.16;;;33.98;35.62
16451;BME280;12243;42.708;23.310;2023-08-21T08:38:19;95391.34;;;34.19;35.41
16451;BME280;12243;42.708;23.310;2023-08-21T08:40:47;95393.00;;;34.46;35.24
16451;BME280;12243;42.708;23.310;2023-08-21T08:43:14;95390.59;;;34.75;34.04
16451;BME280;12243;42.708;23.310;2023-08-21T08:45:41;95387.31;;;34.73;34.68
16451;BME280;12243;42.708;23.310;2023-08-21T08:48:10;95393.28;;;34.80;33.86
16451;BME280;12243;42.708;23.310;2023-08-21T08:50:39;95379.22;;;34.68;34.00
16451;BME280;12243;42.708;23.310;2023-08-21T08:53:06;95390.03;;;34.57;34.17
16451;BME280;12243;42.708;23.310;2023-08-21T08:55:33;95383.25;;;34.50;33.58
16451;BME280;12243;42.708;23.310;2023-08-21T08:58:00;95381.34;;;34.50;33.93
16451;BME280;12243;42.708;23.310;2023-08-21T09:00:27;95382.75;;;34.53;34.26
16451;BME280;12243;42.708;23.310;2023-08-21T09:02:55;95385.16;;;34.75;33.07
16451;BME280;12243;42.708;23.310;2023-08-21T09:05:22;95376.22;;;34.79;33.17
16451;BME280;12243;42.708;23.310;2023-08-21T09:08:04;95370.81;;;34.90;32.77
16451;BME280;12243;42.708;23.310;2023-08-21T09:10:36;95379.72;;;35.26;32.52
16451;BME280;12243;42.708;23.310;2023-08-21T09:13:09;95369.88;;;35.55;32.11
16451;BME280;12243;42.708;23.310;2023-08-21T09:15:36;95376.81;;;35.82;31.38
16451;BME280;12243;42.708;23.310;2023-08-21T09:18:03;95374.66;;;35.74;31.51
16451;BME280;12243;42.708;23.310;2023-08-21T09:20:34;95367.97;;;35.56;32.28
16451;BME280;12243;42.708;23.310;2023-08-21T09:23:03;95365.22;;;35.71;32.00
16451;BME280;12243;42.708;23.310;2023-08-21T09:25:34;95367.34;;;35.79;31.40
16451;BME280;12243;42.708;23.310;2023-08-21T09:28:04;95363.81;;;35.74;31.44
16451;BME280;12243;42.708;23.310;2023-08-21T09:30:47;95363.88;;;35.69;30.95
16451;BME280;12243;42.708;23.310;2023-08-21T09:33:17;95358.09;;;35.86;30.67
16451;BME280;12243;42.708;23.310;2023-08-21T09:35:45;95349.75;;;35.72;30.56
16451;BME280;12243;42.708;23.310;2023-08-21T09:38:13;95350.72;;;35.96;30.61
16451;BME280;12243;42.708;23.310;2023-08-21T09:40:41;95343.41;;;36.02;29.90
16451;BME280;12243;42.708;23.310;2023-08-21T09:43:09;95343.78;;;35.70;30.88
16451;BME280;12243;42.708;23.310;2023-08-21T09:45:37;95344.47;;;35.36;31.18
16451;BME280;12243;42.708;23.310;2023-08-21T09:48:04;95349.28;;;35.54;30.65
16451;BME280;12243;42.708;23.310;2023-08-21T09:50:32;95352.38;;;35.87;29.66
16451;BME280;12243;42.708;23.310;2023-08-21T09:53:00;95345.69;;;35.74;29.96
16451;BME280;12243;42.708;23.310;2023-08-21T09:55:29;95342.72;;;35.71;30.80
16451;BME280;12243;42.708;23.310;2023-08-21T09:57:59;95333.28;;;35.58;30.30
16451;BME280;12243;42.708;23.310;2023-08-21T10:00:30;95344.84;;;35.74;30.00
16451;BME280;12243;42.708;23.310;2023-08-21T10:03:00;95327.97;;;35.92;29.87
16451;BME280;12243;42.708;23.310;2023-08-21T10:05:29;95326.78;;;36.09;29.33
16451;BME280;12243;42.708;23.310;2023-08-21T10:08:00;95317.91;;;35.93;29.65
16451;BME280;12243;42.708;23.310;2023-08-21T10:10:30;95325.50;;;35.91;29.86
16451;BME280;12243;42.708;23.310;2023-08-21T10:12:57;95314.41;;;35.87;29.49
16451;BME280;12243;42.708;23.310;2023-08-21T10:15:25;95320.34;;;35.94;29.67
16451;BME280;12243;42.708;23.310;2023-08-21T10:17:52;95313.81;;;36.00;29.50
16451;BME280;12243;42.708;23.310;2023-08-21T10:20:21;95322.25;;;36.33;28.64
16451;BME280;12243;42.708;23.310;2023-08-21T10:22:50;95320.09;;;36.35;28.89
16451;BME280;12243;42.708;23.310;2023-08-21T10:25:18;95321.03;;;36.15;28.44
16451;BME280;12243;42.708;23.310;2023-08-21T10:27:53;95311.25;;;35.75;29.82
16451;BME280;12243;42.708;23.310;2023-08-21T10:30:21;95311.13;;;35.95;29.37
16451;BME280;12243;42.708;23.310;2023-08-21T10:32:49;95305.44;;;36.02;28.79
16451;BME280;12243;42.708;23.310;2023-08-21T10:35:19;95296.31;;;36.22;28.98
16451;BME280;12243;42.708;23.310;2023-08-21T10:38:05;95294.41;;;36.57;28.34
16451;BME280;12243;42.708;23.310;2023-08-21T10:40:32;95294.94;;;36.59;28.01
16451;BME280;12243;42.708;23.310;2023-08-21T10:43:01;95293.84;;;36.60;28.80
16451;BME280;12243;42.708;23.310;2023-08-21T10:45:28;95286.16;;;36.72;28.05
16451;BME280;12243;42.708;23.310;2023-08-21T10:47:57;95277.59;;;36.84;28.64
16451;BME280;12243;42.708;23.310;2023-08-21T10:50:25;95274.38;;;37.06;27.63
16451;BME280;12243;42.708;23.310;2023-08-21T10:52:52;95272.41;;;37.35;27.02
16451;BME280;12243;42.708;23.310;2023-08-21T10:55:20;95269.91;;;37.39;26.65
16451;BME280;12243;42.708;23.310;2023-08-21T10:57:48;95267.72;;;37.17;26.47
16451;BME280;12243;42.708;23.310;2023-08-21T11:00:18;95272.31;;;36.98;25.78
16451;BME280;12243;42.708;23.310;2023-08-21T11:02:47;95275.03;;;36.92;26.17
16451;BME280;12243;42.708;23.310;2023-08-21T11:05:15;95275.00;;;36.39;26.19
16451;BME280;12243;42.708;23.310;2023-08-21T11:07:43;95271.78;;;35.98;26.28
16451;BME280;12243;42.708;23.310;2023-08-21T11:10:11;95268.75;;;36.10;27.09
16451;BME280;12243;42.708;23.310;2023-08-21T11:12:49;95265.66;;;36.21;26.39
16451;BME280;12243;42.708;23.310;2023-08-21T11:15:17;95261.28;;;36.25;26.80
16451;BME280;12243;42.708;23.310;2023-08-21T11:17:51;95255.53;;;36.32;26.86
16451;BME280;12243;42.708;23.310;2023-08-21T11:20:18;95263.16;;;36.30;26.51
16451;BME280;12243;42.708;23.310;2023-08-21T11:22:45;95271.50;;;35.99;26.80
16451;BME280;12243;42.708;23.310;2023-08-21T11:25:14;95260.72;;;35.45;27.37
16451;BME280;12243;42.708;23.310;2023-08-21T11:27:41;95259.34;;;35.42;26.81
16451;BME280;12243;42.708;23.310;2023-08-21T11:30:11;95249.84;;;35.50;26.86
16451;BME280;12243;42.708;23.310;2023-08-21T11:32:39;95244.91;;;35.62;26.74
16451;BME280;12243;42.708;23.310;2023-08-21T11:35:06;95248.78;;;35.95;26.72
16451;BME280;12243;42.708;23.310;2023-08-21T11:37:34;95244.06;;;36.40;26.49
16451;BME280;12243;42.708;23.310;2023-08-21T11:40:07;95246.03;;;36.64;25.59
16451;BME280;12243;42.708;23.310;2023-08-21T11:42:34;95241.31;;;36.45;25.97
16451;BME280;12243;42.708;23.310;2023-08-21T11:45:02;95242.28;;;36.60;26.05
16451;BME280;12243;42.708;23.310;2023-08-21T11:47:33;95235.84;;;36.80;25.76
16451;BME280;12243;42.708;23.310;2023-08-21T11:50:06;95237.72;;;37.27;25.24
16451;BME280;12243;42.708;23.310;2023-08-21T11:52:36;95239.59;;;37.08;24.77
16451;BME280;12243;42.708;23.310;2023-08-21T11:55:07;95243.09;;;36.84;25.04
16451;BME280;12243;42.708;23.310;2023-08-21T11:57:34;95235.19;;;37.12;24.78
16451;BME280;12243;42.708;23.310;2023-08-21T12:00:02;95222.47;;;37.31;25.12
16451;BME280;12243;42.708;23.310;2023-08-21T12:02:31;95237.00;;;37.22;24.41
16451;BME280;12243;42.708;23.310;2023-08-21T12:05:02;95245.94;;;37.22;24.88
16451;BME280;12243;42.708;23.310;2023-08-21T12:07:32;95233.25;;;37.36;24.76
16451;BME280;12243;42.708;23.310;2023-08-21T12:09:58;95234.91;;;37.75;24.50
16451;BME280;12243;42.708;23.310;2023-08-21T12:12:26;95228.50;;;38.04;23.85
16451;BME280;12243;42.708;23.310;2023-08-21T12:14:52;95235.53;;;37.91;23.42
16451;BME280;12243;42.708;23.310;2023-08-21T12:17:19;95223.00;;;37.71;23.64
16451;BME280;12243;42.708;23.310;2023-08-21T12:19:46;95216.75;;;37.89;23.19
16451;BME280;12243;42.708;23.310;2023-08-21T12:22:13;95230.31;;;37.95;24.22
16451;BME280;12243;42.708;23.310;2023-08-21T12:24:41;95221.91;;;37.72;24.64
16451;BME280;12243;42.708;23.310;2023-08-21T12:27:08;95223.28;;;37.88;24.16
16451;BME280;12243;42.708;23.310;2023-08-21T12:29:35;95216.59;;;38.00;23.41
16451;BME280;12243;42.708;23.310;2023-08-21T12:32:02;95218.66;;;38.08;23.65
16451;BME280;12243;42.708;23.310;2023-08-21T12:34:29;95227.47;;;37.62;24.00
16451;BME280;12243;42.708;23.310;2023-08-21T12:36:56;95223.50;;;37.35;25.01
16451;BME280;12243;42.708;23.310;2023-08-21T12:39:23;95222.53;;;37.26;24.73
16451;BME280;12243;42.708;23.310;2023-08-21T12:41:51;95213.47;;;37.12;24.58
16451;BME280;12243;42.708;23.310;2023-08-21T12:44:18;95201.34;;;36.56;25.46
16451;BME280;12243;42.708;23.310;2023-08-21T12:46:44;95190.38;;;36.66;25.36
16451;BME280;12243;42.708;23.310;2023-08-21T12:49:12;95205.53;;;36.91;24.94
16451;BME280;12243;42.708;23.310;2023-08-21T12:51:38;95196.00;;;37.18;25.17
16451;BME280;12243;42.708;23.310;2023-08-21T12:54:05;95193.22;;;37.23;24.10